sensor_id;sensor_type;location;lat;lon;timestamp;pressure;altitude;pressure_sealevel;temperature;humidity
74958;BME280;63741;42.624;26.276;2022-12-29T00:00:55;100932.13;;;4.93;72.77
74958;BME280;63741;42.624;26.276;2022-12-29T00:03:22;100930.00;;;5.04;71.63
74958;BME280;63741;42.624;26.276;2022-12-29T00:05:56;100933.22;;;5.12;71.66
74958;BME280;63741;42.624;26.276;2022-12-29T00:08:24;100943.50;;;5.18;70.48
74958;BME280;63741;42.624;26.276;2022-12-29T00:11:14;100931.34;;;5.16;71.44
74958;BME280;63741;42.624;26.276;2022-12-29T00:13:42;100934.88;;;5.15;70.77
74958;BME280;63741;42.624;26.276;2022-12-29T00:16:28;100933.81;;;5.20;70.93
74958;BME280;63741;42.624;26.276;2022-12-29T00:18:56;100929.66;;;5.13;71.34
74958;BME280;63741;42.624;26.276;2022-12-29T00:21:25;100931.44;;;5.13;70.94
74958;BME280;63741;42.624;26.276;2022-12-29T00:24:17;100932.13;;;5.18;71.00
74958;BME280;63741;42.624;26.276;2022-12-29T00:29:48;100931.94;;;5.24;71.30
74958;BME280;63741;42.624;26.276;2022-12-29T00:32:34;100929.56;;;5.16;71.95
74958;BME280;63741;42.624;26.276;2022-12-29T00:37:53;100932.63;;;5.29;71.05
74958;BME280;63741;42.624;26.276;2022-12-29T00:40:40;100937.81;;;5.30;71.72
74958;BME280;63741;42.624;26.276;2022-12-29T00:43:26;100931.78;;;5.28;71.18
74958;BME280;63741;42.624;26.276;2022-12-29T00:46:11;100938.63;;;5.32;71.64
74958;BME280;63741;42.624;26.276;2022-12-29T00:48:45;100933.50;;;5.29;71.52
74958;BME280;63741;42.624;26.276;2022-12-29T00:51:31;100922.22;;;5.27;71.55
74958;BME280;63741;42.624;26.276;2022-12-29T00:53:58;100925.00;;;5.23;71.17
74958;BME280;63741;42.624;26.276;2022-12-29T00:56:25;100919.91;;;5.18;72.10
74958;BME280;63741;42.624;26.276;2022-12-29T00:58:52;100915.13;;;5.29;71.98
74958;BME280;63741;42.624;26.276;2022-12-29T01:01:19;100918.91;;;5.22;72.05
74958;BME280;63741;42.624;26.276;2022-12-29T01:03:46;100922.31;;;5.24;70.57
74958;BME280;63741;42.624;26.276;2022-12-29T01:06:14;100911.03;;;5.22;71.05
74958;BME280;63741;42.624;26.276;2022-12-29T01:08:41;100913.31;;;5.31;70.83
74958;BME280;63741;42.624;26.276;2022-12-29T01:11:11;100901.16;;;5.29;71.15
74958;BME280;63741;42.624;26.276;2022-12-29T01:13:39;100906.41;;;5.29;71.37
74958;BME280;63741;42.624;26.276;2022-12-29T01:16:07;100910.09;;;5.23;72.31
74958;BME280;63741;42.624;26.276;2022-12-29T01:18:34;100900.25;;;5.30;70.93
74958;BME280;63741;42.624;26.276;2022-12-29T01:21:06;100908.28;;;5.25;71.67
74958;BME280;63741;42.624;26.276;2022-12-29T01:23:33;100895.63;;;5.12;72.12
74958;BME280;63741;42.624;26.276;2022-12-29T01:26:11;100894.53;;;5.19;72.12
74958;BME280;63741;42.624;26.276;2022-12-29T01:28:38;100891.78;;;5.22;72.24
74958;BME280;63741;42.624;26.276;2022-12-29T01:31:08;100896.41;;;5.15;72.76
74958;BME280;63741;42.624;26.276;2022-12-29T01:33:36;100893.63;;;5.20;72.77
74958;BME280;63741;42.624;26.276;2022-12-29T01:36:04;100890.91;;;5.23;72.06
74958;BME280;63741;42.624;26.276;2022-12-29T01:38:33;100895.16;;;5.25;71.93
74958;BME280;63741;42.624;26.276;2022-12-29T01:41:01;100890.59;;;5.30;73.03
74958;BME280;63741;42.624;26.276;2022-12-29T01:43:48;100887.09;;;5.31;72.91
74958;BME280;63741;42.624;26.276;2022-12-29T01:46:40;100886.75;;;5.41;71.78
74958;BME280;63741;42.624;26.276;2022-12-29T01:49:15;100884.22;;;5.38;71.49
74958;BME280;63741;42.624;26.276;2022-12-29T01:51:50;100873.59;;;5.17;72.47
74958;BME280;63741;42.624;26.276;2022-12-29T01:54:34;100872.72;;;5.17;73.67
74958;BME280;63741;42.624;26.276;2022-12-29T01:57:05;100872.13;;;5.08;73.28
74958;BME280;63741;42.624;26.276;2022-12-29T01:59:37;100880.06;;;5.07;74.40
74958;BME280;63741;42.624;26.276;2022-12-29T02:02:06;100882.31;;;5.18;72.89
74958;BME280;63741;42.624;26.276;2022-12-29T02:04:35;100872.72;;;5.17;74.33
74958;BME280;63741;42.624;26.276;2022-12-29T02:07:11;100862.72;;;5.28;73.73
74958;BME280;63741;42.624;26.276;2022-12-29T02:09:42;100866.09;;;5.31;72.41
74958;BME280;63741;42.624;26.276;2022-12-29T02:12:09;100862.59;;;5.31;73.42
74958;BME280;63741;42.624;26.276;2022-12-29T02:14:36;100861.53;;;5.37;73.24
74958;BME280;63741;42.624;26.276;2022-12-29T02:39:05;100858.22;;;5.31;74.00
74958;BME280;63741;42.624;26.276;2022-12-29T02:50:39;100854.69;;;5.56;73.20
74958;BME280;63741;42.624;26.276;2022-12-29T02:53:15;100847.72;;;5.55;73.60
74958;BME280;63741;42.624;26.276;2022-12-29T02:55:48;100850.13;;;5.61;72.86
74958;BME280;63741;42.624;26.276;2022-12-29T02:58:17;100843.09;;;5.62;73.14
74958;BME280;63741;42.624;26.276;2022-12-29T03:01:06;100845.53;;;5.66;73.11
74958;BME280;63741;42.624;26.276;2022-12-29T03:09:05;100843.41;;;5.76;73.45
74958;BME280;63741;42.624;26.276;2022-12-29T03:14:55;100840.78;;;5.54;74.29
74958;BME280;63741;42.624;26.276;2022-12-29T03:17:54;100845.22;;;5.52;73.67
74958;BME280;63741;42.624;26.276;2022-12-29T03:20:31;100841.66;;;5.53;73.99
74958;BME280;63741;42.624;26.276;2022-12-29T03:23:03;100834.31;;;5.39;73.91
74958;BME280;63741;42.624;26.276;2022-12-29T03:25:38;100839.53;;;5.41;73.78
74958;BME280;63741;42.624;26.276;2022-12-29T03:28:13;100844.28;;;5.29;74.36
74958;BME280;63741;42.624;26.276;2022-12-29T03:30:46;100840.06;;;5.25;74.02
74958;BME280;63741;42.624;26.276;2022-12-29T03:33:20;100839.16;;;5.26;74.44
74958;BME280;63741;42.624;26.276;2022-12-29T03:35:51;100846.69;;;5.36;75.06
74958;BME280;63741;42.624;26.276;2022-12-29T03:38:33;100844.94;;;5.36;75.13
74958;BME280;63741;42.624;26.276;2022-12-29T03:41:05;100841.22;;;5.42;75.04
74958;BME280;63741;42.624;26.276;2022-12-29T03:43:33;100840.97;;;5.49;74.18
74958;BME280;63741;42.624;26.276;2022-12-29T03:46:00;100840.88;;;5.51;74.39
74958;BME280;63741;42.624;26.276;2022-12-29T03:48:27;100846.03;;;5.54;73.88
74958;BME280;63741;42.624;26.276;2022-12-29T03:50:55;100848.13;;;5.44;73.77
74958;BME280;63741;42.624;26.276;2022-12-29T03:53:22;100842.69;;;5.49;74.15
74958;BME280;63741;42.624;26.276;2022-12-29T03:55:50;100843.78;;;5.43;74.73
74958;BME280;63741;42.624;26.276;2022-12-29T03:58:16;100846.69;;;5.36;75.01
74958;BME280;63741;42.624;26.276;2022-12-29T04:00:54;100841.41;;;5.37;75.10
74958;BME280;63741;42.624;26.276;2022-12-29T04:03:22;100843.38;;;5.30;74.53
74958;BME280;63741;42.624;26.276;2022-12-29T04:05:50;100840.03;;;5.27;74.39
74958;BME280;63741;42.624;26.276;2022-12-29T04:08:17;100856.63;;;5.27;74.07
74958;BME280;63741;42.624;26.276;2022-12-29T04:10:43;100845.56;;;5.19;74.81
74958;BME280;63741;42.624;26.276;2022-12-29T04:13:13;100853.59;;;5.15;75.47
74958;BME280;63741;42.624;26.276;2022-12-29T04:15:43;100847.53;;;5.13;75.37
74958;BME280;63741;42.624;26.276;2022-12-29T04:18:12;100850.13;;;5.13;75.73
74958;BME280;63741;42.624;26.276;2022-12-29T04:20:40;100839.47;;;5.17;74.46
74958;BME280;63741;42.624;26.276;2022-12-29T04:23:27;100845.47;;;5.21;74.25
74958;BME280;63741;42.624;26.276;2022-12-29T04:25:55;100845.13;;;5.31;74.92
74958;BME280;63741;42.624;26.276;2022-12-29T04:28:22;100848.59;;;5.32;74.67
74958;BME280;63741;42.624;26.276;2022-12-29T04:31:03;100850.56;;;5.25;74.14
74958;BME280;63741;42.624;26.276;2022-12-29T04:33:35;100849.13;;;5.40;73.20
74958;BME280;63741;42.624;26.276;2022-12-29T04:36:02;100849.31;;;5.36;73.57
74958;BME280;63741;42.624;26.276;2022-12-29T04:38:29;100847.44;;;5.39;73.25
74958;BME280;63741;42.624;26.276;2022-12-29T04:41:00;100858.75;;;5.16;74.87
74958;BME280;63741;42.624;26.276;2022-12-29T04:43:29;100857.91;;;5.16;74.66
74958;BME280;63741;42.624;26.276;2022-12-29T04:46:16;100850.81;;;5.18;74.09
74958;BME280;63741;42.624;26.276;2022-12-29T04:48:55;100854.00;;;5.27;74.73
74958;BME280;63741;42.624;26.276;2022-12-29T04:51:37;100851.06;;;5.12;74.56
74958;BME280;63741;42.624;26.276;2022-12-29T04:54:07;100866.13;;;5.30;74.39
74958;BME280;63741;42.624;26.276;2022-12-29T04:56:34;100859.41;;;5.23;74.56
74958;BME280;63741;42.624;26.276;2022-12-29T04:59:01;100859.50;;;5.20;73.52
74958;BME280;63741;42.624;26.276;2022-12-29T05:01:28;100863.38;;;5.10;74.10
74958;BME280;63741;42.624;26.276;2022-12-29T05:03:56;100863.16;;;5.16;73.63
74958;BME280;63741;42.624;26.276;2022-12-29T05:06:24;100863.53;;;5.05;74.40
74958;BME280;63741;42.624;26.276;2022-12-29T05:08:51;100860.38;;;4.95;74.70
74958;BME280;63741;42.624;26.276;2022-12-29T05:11:19;100862.88;;;4.98;74.76
74958;BME280;63741;42.624;26.276;2022-12-29T05:13:48;100865.50;;;4.98;73.54
74958;BME280;63741;42.624;26.276;2022-12-29T05:16:16;100863.53;;;5.05;74.07
74958;BME280;63741;42.624;26.276;2022-12-29T05:18:44;100861.25;;;4.96;73.90
74958;BME280;63741;42.624;26.276;2022-12-29T05:21:11;100851.78;;;4.92;74.22
74958;BME280;63741;42.624;26.276;2022-12-29T05:23:40;100860.97;;;4.78;74.45
74958;BME280;63741;42.624;26.276;2022-12-29T05:26:07;100849.56;;;4.79;73.88
74958;BME280;63741;42.624;26.276;2022-12-29T05:29:03;100856.88;;;4.70;74.61
74958;BME280;63741;42.624;26.276;2022-12-29T05:31:31;100858.59;;;4.71;74.65
74958;BME280;63741;42.624;26.276;2022-12-29T05:33:59;100856.66;;;4.76;74.60
74958;BME280;63741;42.624;26.276;2022-12-29T05:36:27;100870.03;;;4.68;74.59
74958;BME280;63741;42.624;26.276;2022-12-29T05:39:02;100869.28;;;4.65;73.92
74958;BME280;63741;42.624;26.276;2022-12-29T05:41:29;100870.47;;;4.56;74.42
74958;BME280;63741;42.624;26.276;2022-12-29T05:44:14;100867.69;;;4.61;74.77
74958;BME280;63741;42.624;26.276;2022-12-29T05:47:02;100863.31;;;4.60;74.42
74958;BME280;63741;42.624;26.276;2022-12-29T05:49:58;100867.97;;;4.51;74.66
74958;BME280;63741;42.624;26.276;2022-12-29T05:52:42;100869.84;;;4.48;74.15
74958;BME280;63741;42.624;26.276;2022-12-29T05:55:11;100872.63;;;4.42;74.55
74958;BME280;63741;42.624;26.276;2022-12-29T05:57:39;100874.56;;;4.37;75.54
74958;BME280;63741;42.624;26.276;2022-12-29T06:00:13;100881.81;;;4.55;74.53
74958;BME280;63741;42.624;26.276;2022-12-29T06:02:41;100874.22;;;4.74;73.57
74958;BME280;63741;42.624;26.276;2022-12-29T06:05:09;100885.78;;;4.93;72.05
74958;BME280;63741;42.624;26.276;2022-12-29T06:07:37;100897.50;;;5.33;71.51
74958;BME280;63741;42.624;26.276;2022-12-29T06:10:05;100888.28;;;5.95;69.31
74958;BME280;63741;42.624;26.276;2022-12-29T06:12:41;100886.28;;;6.88;65.89
74958;BME280;63741;42.624;26.276;2022-12-29T06:15:08;100886.31;;;7.66;63.62
74958;BME280;63741;42.624;26.276;2022-12-29T06:17:38;100890.31;;;8.31;60.33
74958;BME280;63741;42.624;26.276;2022-12-29T06:20:06;100886.00;;;8.84;58.51
74958;BME280;63741;42.624;26.276;2022-12-29T06:22:33;100892.31;;;9.32;56.67
74958;BME280;63741;42.624;26.276;2022-12-29T06:25:01;100889.63;;;9.33;55.98
74958;BME280;63741;42.624;26.276;2022-12-29T06:27:32;100892.34;;;9.65;55.39
74958;BME280;63741;42.624;26.276;2022-12-29T06:29:59;100891.03;;;10.05;54.94
74958;BME280;63741;42.624;26.276;2022-12-29T06:32:27;100890.09;;;10.38;53.02
74958;BME280;63741;42.624;26.276;2022-12-29T06:34:59;100891.72;;;10.41;52.70
74958;BME280;63741;42.624;26.276;2022-12-29T06:37:26;100880.84;;;9.82;54.48
74958;BME280;63741;42.624;26.276;2022-12-29T06:39:53;100884.47;;;9.48;56.10
74958;BME280;63741;42.624;26.276;2022-12-29T06:42:20;100883.31;;;9.36;56.82
74958;BME280;63741;42.624;26.276;2022-12-29T06:45:07;100888.22;;;9.09;57.66
74958;BME280;63741;42.624;26.276;2022-12-29T06:47:35;100895.44;;;9.05;57.80
74958;BME280;63741;42.624;26.276;2022-12-29T06:50:03;100883.91;;;8.91;58.24
74958;BME280;63741;42.624;26.276;2022-12-29T06:52:29;100899.13;;;9.03;56.94
74958;BME280;63741;42.624;26.276;2022-12-29T06:54:56;100889.69;;;9.15;56.73
74958;BME280;63741;42.624;26.276;2022-12-29T06:57:23;100897.22;;;9.22;57.32
74958;BME280;63741;42.624;26.276;2022-12-29T06:59:50;100902.28;;;9.09;58.31
74958;BME280;63741;42.624;26.276;2022-12-29T07:02:17;100903.78;;;9.48;57.10
74958;BME280;63741;42.624;26.276;2022-12-29T07:04:47;100902.34;;;9.92;56.00
74958;BME280;63741;42.624;26.276;2022-12-29T07:07:14;100909.50;;;10.21;55.15
74958;BME280;63741;42.624;26.276;2022-12-29T07:09:41;100908.91;;;10.16;55.24
74958;BME280;63741;42.624;26.276;2022-12-29T07:12:08;100902.91;;;10.46;54.34
74958;BME280;63741;42.624;26.276;2022-12-29T07:14:35;100900.25;;;10.14;55.38
74958;BME280;63741;42.624;26.276;2022-12-29T07:17:08;100904.91;;;9.93;56.14
74958;BME280;63741;42.624;26.276;2022-12-29T07:19:35;100909.53;;;10.05;56.44
74958;BME280;63741;42.624;26.276;2022-12-29T07:22:02;100895.78;;;10.62;54.55
74958;BME280;63741;42.624;26.276;2022-12-29T07:24:29;100902.53;;;10.52;55.22
74958;BME280;63741;42.624;26.276;2022-12-29T07:26:56;100900.47;;;10.57;55.24
74958;BME280;63741;42.624;26.276;2022-12-29T07:29:23;100899.69;;;10.71;55.32
74958;BME280;63741;42.624;26.276;2022-12-29T07:31:50;100904.63;;;11.07;54.56
74958;BME280;63741;42.624;26.276;2022-12-29T07:34:18;100900.63;;;11.44;54.13
74958;BME280;63741;42.624;26.276;2022-12-29T07:36:44;100903.63;;;11.24;53.79
74958;BME280;63741;42.624;26.276;2022-12-29T07:39:11;100902.59;;;11.41;53.40
74958;BME280;63741;42.624;26.276;2022-12-29T07:41:38;100894.47;;;11.44;53.59
74958;BME280;63741;42.624;26.276;2022-12-29T07:44:10;100895.25;;;11.74;52.90
74958;BME280;63741;42.624;26.276;2022-12-29T07:46:56;100898.66;;;11.91;52.85
74958;BME280;63741;42.624;26.276;2022-12-29T07:49:24;100906.56;;;12.05;52.94
74958;BME280;63741;42.624;26.276;2022-12-29T07:51:52;100895.56;;;12.25;51.64
74958;BME280;63741;42.624;26.276;2022-12-29T07:54:19;100895.41;;;12.41;51.44
74958;BME280;63741;42.624;26.276;2022-12-29T07:56:46;100891.56;;;12.32;51.03
74958;BME280;63741;42.624;26.276;2022-12-29T07:59:13;100889.00;;;12.31;51.52
74958;BME280;63741;42.624;26.276;2022-12-29T08:01:40;100894.78;;;12.37;51.19
74958;BME280;63741;42.624;26.276;2022-12-29T08:04:07;100893.16;;;12.35;51.67
74958;BME280;63741;42.624;26.276;2022-12-29T08:06:34;100889.69;;;12.74;50.67
74958;BME280;63741;42.624;26.276;2022-12-29T08:09:01;100902.22;;;12.72;50.16
74958;BME280;63741;42.624;26.276;2022-12-29T08:11:39;100892.34;;;12.74;50.15
74958;BME280;63741;42.624;26.276;2022-12-29T08:14:07;100893.09;;;12.76;49.62
74958;BME280;63741;42.624;26.276;2022-12-29T08:16:34;100892.50;;;12.98;49.56
74958;BME280;63741;42.624;26.276;2022-12-29T08:19:01;100895.47;;;12.94;49.84
74958;BME280;63741;42.624;26.276;2022-12-29T08:21:30;100901.13;;;13.02;49.46
74958;BME280;63741;42.624;26.276;2022-12-29T08:23:57;100898.03;;;13.08;48.55
74958;BME280;63741;42.624;26.276;2022-12-29T08:26:25;100890.66;;;13.38;48.30
74958;BME280;63741;42.624;26.276;2022-12-29T08:28:53;100892.34;;;13.52;48.35
74958;BME280;63741;42.624;26.276;2022-12-29T08:31:21;100895.34;;;13.60;47.36
74958;BME280;63741;42.624;26.276;2022-12-29T08:33:48;100890.13;;;13.59;47.23
74958;BME280;63741;42.624;26.276;2022-12-29T08:36:15;100887.47;;;13.72;46.62
74958;BME280;63741;42.624;26.276;2022-12-29T08:38:42;100884.81;;;13.59;46.89
74958;BME280;63741;42.624;26.276;2022-12-29T08:41:09;100881.31;;;13.71;46.47
74958;BME280;63741;42.624;26.276;2022-12-29T08:43:36;100882.03;;;13.73;47.27
74958;BME280;63741;42.624;26.276;2022-12-29T08:46:03;100887.41;;;13.97;45.87
74958;BME280;63741;42.624;26.276;2022-12-29T08:48:30;100886.34;;;14.00;45.94
74958;BME280;63741;42.624;26.276;2022-12-29T08:50:57;100885.63;;;13.98;45.09
74958;BME280;63741;42.624;26.276;2022-12-29T08:53:24;100876.72;;;14.10;45.59
74958;BME280;63741;42.624;26.276;2022-12-29T08:55:58;100876.56;;;14.00;46.21
74958;BME280;63741;42.624;26.276;2022-12-29T08:58:34;100880.50;;;14.31;44.55
74958;BME280;63741;42.624;26.276;2022-12-29T09:01:02;100880.63;;;14.30;44.91
74958;BME280;63741;42.624;26.276;2022-12-29T09:03:29;100870.22;;;14.14;44.78
74958;BME280;63741;42.624;26.276;2022-12-29T09:06:17;100873.16;;;13.98;45.99
74958;BME280;63741;42.624;26.276;2022-12-29T09:08:44;100872.22;;;14.23;45.95
74958;BME280;63741;42.624;26.276;2022-12-29T09:11:15;100872.63;;;14.30;43.99
74958;BME280;63741;42.624;26.276;2022-12-29T09:13:43;100869.22;;;14.28;45.00
74958;BME280;63741;42.624;26.276;2022-12-29T09:16:10;100863.88;;;14.04;46.07
74958;BME280;63741;42.624;26.276;2022-12-29T09:18:37;100861.44;;;14.01;47.04
74958;BME280;63741;42.624;26.276;2022-12-29T09:21:06;100861.91;;;13.95;45.59
74958;BME280;63741;42.624;26.276;2022-12-29T09:23:34;100852.78;;;14.10;45.89
74958;BME280;63741;42.624;26.276;2022-12-29T09:26:02;100851.34;;;14.30;46.07
74958;BME280;63741;42.624;26.276;2022-12-29T09:28:29;100846.53;;;14.59;46.03
74958;BME280;63741;42.624;26.276;2022-12-29T09:30:57;100853.75;;;14.70;44.72
74958;BME280;63741;42.624;26.276;2022-12-29T09:33:25;100852.72;;;14.95;43.64
74958;BME280;63741;42.624;26.276;2022-12-29T09:35:55;100850.69;;;15.09;44.24
74958;BME280;63741;42.624;26.276;2022-12-29T09:38:23;100849.84;;;15.20;44.76
74958;BME280;63741;42.624;26.276;2022-12-29T09:40:56;100845.50;;;14.73;45.58
74958;BME280;63741;42.624;26.276;2022-12-29T09:43:29;100849.75;;;15.33;43.68
74958;BME280;63741;42.624;26.276;2022-12-29T09:48:44;100842.13;;;15.39;44.22
74958;BME280;63741;42.624;26.276;2022-12-29T09:51:16;100840.72;;;14.89;44.92
74958;BME280;63741;42.624;26.276;2022-12-29T09:53:50;100834.13;;;14.71;46.73
74958;BME280;63741;42.624;26.276;2022-12-29T09:56:21;100830.59;;;15.16;45.52
74958;BME280;63741;42.624;26.276;2022-12-29T09:59:10;100824.09;;;14.74;46.85
74958;BME280;63741;42.624;26.276;2022-12-29T10:01:44;100820.22;;;14.78;46.22
74958;BME280;63741;42.624;26.276;2022-12-29T10:04:14;100810.84;;;15.19;46.23
74958;BME280;63741;42.624;26.276;2022-12-29T10:06:51;100808.91;;;15.43;45.13
74958;BME280;63741;42.624;26.276;2022-12-29T10:15:18;100811.63;;;14.86;46.49
74958;BME280;63741;42.624;26.276;2022-12-29T10:20:52;100798.25;;;15.10;45.38
74958;BME280;63741;42.624;26.276;2022-12-29T10:23:29;100801.53;;;14.67;46.12
74958;BME280;63741;42.624;26.276;2022-12-29T10:25:59;100794.66;;;14.76;46.34
74958;BME280;63741;42.624;26.276;2022-12-29T10:28:35;100796.03;;;14.93;46.59
74958;BME280;63741;42.624;26.276;2022-12-29T10:31:16;100795.69;;;15.31;45.35
74958;BME280;63741;42.624;26.276;2022-12-29T10:33:53;100789.41;;;15.32;45.25
74958;BME280;63741;42.624;26.276;2022-12-29T10:36:34;100781.03;;;15.59;45.13
74958;BME280;63741;42.624;26.276;2022-12-29T10:39:55;100779.13;;;15.72;44.33
74958;BME280;63741;42.624;26.276;2022-12-29T10:42:35;100787.34;;;15.24;45.02
74958;BME280;63741;42.624;26.276;2022-12-29T10:45:04;100779.81;;;15.52;44.05
74958;BME280;63741;42.624;26.276;2022-12-29T10:47:38;100770.47;;;14.90;44.91
74958;BME280;63741;42.624;26.276;2022-12-29T10:50:11;100776.69;;;15.24;45.56
74958;BME280;63741;42.624;26.276;2022-12-29T10:52:39;100779.69;;;15.31;44.73
74958;BME280;63741;42.624;26.276;2022-12-29T10:55:18;100769.78;;;15.33;45.04
74958;BME280;63741;42.624;26.276;2022-12-29T10:57:47;100757.53;;;15.41;45.13
74958;BME280;63741;42.624;26.276;2022-12-29T11:00:18;100755.81;;;15.52;44.42
74958;BME280;63741;42.624;26.276;2022-12-29T11:06:08;100753.19;;;15.40;44.20
74958;BME280;63741;42.624;26.276;2022-12-29T11:09:14;100761.53;;;15.47;44.77
74958;BME280;63741;42.624;26.276;2022-12-29T11:11:41;100757.41;;;15.54;44.87
74958;BME280;63741;42.624;26.276;2022-12-29T11:16:35;100759.84;;;15.69;44.63
74958;BME280;63741;42.624;26.276;2022-12-29T11:19:03;100759.22;;;15.65;44.62
74958;BME280;63741;42.624;26.276;2022-12-29T11:24:03;100762.50;;;15.12;45.15
74958;BME280;63741;42.624;26.276;2022-12-29T11:26:31;100754.63;;;15.22;45.33
74958;BME280;63741;42.624;26.276;2022-12-29T11:31:48;100750.59;;;14.36;47.92
74958;BME280;63741;42.624;26.276;2022-12-29T11:34:20;100741.97;;;14.68;47.40
74958;BME280;63741;42.624;26.276;2022-12-29T11:36:49;100753.19;;;15.07;45.82
74958;BME280;63741;42.624;26.276;2022-12-29T11:39:48;100747.00;;;14.84;47.20
74958;BME280;63741;42.624;26.276;2022-12-29T11:42:21;100741.81;;;15.27;46.51
74958;BME280;63741;42.624;26.276;2022-12-29T11:44:50;100744.19;;;14.85;47.21
74958;BME280;63741;42.624;26.276;2022-12-29T11:47:36;100732.34;;;15.12;46.61
74958;BME280;63741;42.624;26.276;2022-12-29T11:50:05;100726.03;;;15.24;46.33
74958;BME280;63741;42.624;26.276;2022-12-29T11:52:35;100725.41;;;15.43;44.92
74958;BME280;63741;42.624;26.276;2022-12-29T11:55:05;100728.69;;;15.47;45.02
74958;BME280;63741;42.624;26.276;2022-12-29T11:57:34;100728.22;;;15.30;45.41
74958;BME280;63741;42.624;26.276;2022-12-29T12:00:22;100718.34;;;15.76;44.49
74958;BME280;63741;42.624;26.276;2022-12-29T12:03:14;100715.16;;;15.27;45.83
74958;BME280;63741;42.624;26.276;2022-12-29T12:05:56;100718.78;;;15.15;45.56
74958;BME280;63741;42.624;26.276;2022-12-29T12:08:33;100712.53;;;14.47;47.89
74958;BME280;63741;42.624;26.276;2022-12-29T12:11:12;100712.34;;;14.37;47.63
74958;BME280;63741;42.624;26.276;2022-12-29T12:14:00;100708.59;;;15.31;45.74
74958;BME280;63741;42.624;26.276;2022-12-29T12:16:55;100704.66;;;15.69;45.34
74958;BME280;63741;42.624;26.276;2022-12-29T12:19:31;100693.88;;;15.59;44.57
74958;BME280;63741;42.624;26.276;2022-12-29T12:22:08;100698.53;;;15.12;46.26
74958;BME280;63741;42.624;26.276;2022-12-29T12:24:46;100709.09;;;15.03;46.65
74958;BME280;63741;42.624;26.276;2022-12-29T12:30:14;100689.81;;;15.22;45.59
74958;BME280;63741;42.624;26.276;2022-12-29T12:33:14;100694.22;;;15.00;46.61
74958;BME280;63741;42.624;26.276;2022-12-29T12:38:45;100695.16;;;14.88;47.21
74958;BME280;63741;42.624;26.276;2022-12-29T12:41:56;100684.63;;;15.20;46.71
74958;BME280;63741;42.624;26.276;2022-12-29T12:45:02;100685.88;;;15.48;45.03
74958;BME280;63741;42.624;26.276;2022-12-29T12:50:29;100676.75;;;15.62;45.01
74958;BME280;63741;42.624;26.276;2022-12-29T12:56:12;100684.94;;;15.27;46.42
74958;BME280;63741;42.624;26.276;2022-12-29T13:07:02;100699.84;;;26.22;26.19
74958;BME280;63741;42.624;26.276;2022-12-29T13:09:48;100701.25;;;27.78;23.07
74958;BME280;63741;42.624;26.276;2022-12-29T13:12:35;100702.44;;;27.69;22.44
74958;BME280;63741;42.624;26.276;2022-12-29T13:17:50;100711.00;;;27.66;22.78
74958;BME280;63741;42.624;26.276;2022-12-29T13:23:15;100696.75;;;20.08;33.53
74958;BME280;63741;42.624;26.276;2022-12-29T13:28:57;100692.50;;;16.92;40.67
74958;BME280;63741;42.624;26.276;2022-12-29T13:31:56;100692.25;;;15.79;43.75
74958;BME280;63741;42.624;26.276;2022-12-29T13:37:20;100700.47;;;14.77;47.36
74958;BME280;63741;42.624;26.276;2022-12-29T13:39:56;100693.72;;;14.84;46.01
74958;BME280;63741;42.624;26.276;2022-12-29T13:42:25;100702.78;;;14.70;46.64
74958;BME280;63741;42.624;26.276;2022-12-29T13:45:02;100703.75;;;14.69;46.83
74958;BME280;63741;42.624;26.276;2022-12-29T13:47:40;100699.00;;;14.61;46.97
74958;BME280;63741;42.624;26.276;2022-12-29T13:50:19;100697.56;;;14.69;46.59
74958;BME280;63741;42.624;26.276;2022-12-29T13:55:45;100695.25;;;14.18;48.34
74958;BME280;63741;42.624;26.276;2022-12-29T14:03:53;100703.94;;;14.20;48.43
74958;BME280;63741;42.624;26.276;2022-12-29T14:06:28;100707.13;;;13.89;49.09
74958;BME280;63741;42.624;26.276;2022-12-29T14:09:02;100693.25;;;13.73;49.37
74958;BME280;63741;42.624;26.276;2022-12-29T14:11:37;100702.22;;;13.83;49.48
74958;BME280;63741;42.624;26.276;2022-12-29T14:14:22;100695.84;;;13.62;50.35
74958;BME280;63741;42.624;26.276;2022-12-29T14:16:51;100699.94;;;13.42;50.38
74958;BME280;63741;42.624;26.276;2022-12-29T14:19:30;100702.72;;;13.40;50.56
74958;BME280;63741;42.624;26.276;2022-12-29T14:22:01;100698.88;;;12.95;51.92
74958;BME280;63741;42.624;26.276;2022-12-29T14:34:57;100702.50;;;12.03;54.55
74958;BME280;63741;42.624;26.276;2022-12-29T14:37:25;100713.59;;;11.96;55.31
74958;BME280;63741;42.624;26.276;2022-12-29T14:42:49;100709.69;;;11.88;55.54
74958;BME280;63741;42.624;26.276;2022-12-29T14:47:50;100714.03;;;11.75;55.68
74958;BME280;63741;42.624;26.276;2022-12-29T14:52:55;100714.66;;;11.66;56.13
74958;BME280;63741;42.624;26.276;2022-12-29T14:55:41;100712.97;;;11.51;56.54
74958;BME280;63741;42.624;26.276;2022-12-29T14:58:20;100711.19;;;11.37;56.91
74958;BME280;63741;42.624;26.276;2022-12-29T15:00:49;100710.75;;;11.30;57.75
74958;BME280;63741;42.624;26.276;2022-12-29T15:03:23;100720.41;;;11.17;57.54
74958;BME280;63741;42.624;26.276;2022-12-29T15:05:54;100722.22;;;10.88;58.75
74958;BME280;63741;42.624;26.276;2022-12-29T15:08:29;100706.81;;;10.95;58.32
74958;BME280;63741;42.624;26.276;2022-12-29T15:11:02;100715.47;;;11.11;57.88
74958;BME280;63741;42.624;26.276;2022-12-29T15:13:38;100711.16;;;10.96;57.92
74958;BME280;63741;42.624;26.276;2022-12-29T15:16:30;100719.00;;;10.83;58.53
74958;BME280;63741;42.624;26.276;2022-12-29T15:18:58;100719.78;;;10.85;58.88
74958;BME280;63741;42.624;26.276;2022-12-29T15:21:29;100718.03;;;10.84;58.60